Darstellungsparameter: Aktuell verwendete Einstellungen:
Skalierung der Graphiken ... ?
xyx+y,   Skalierungsfaktor:      Skalierung: Modus: x, Faktor: 1
Darstellungszeitraum ... ?
Vom - - bis: - -   Zeitraum: 13.12.2010 - 19.12.2010
Min/Max/Avg-Anzeige ... ?
Zeige MMA aktuell
Zeige MMA Monat
Zeige MMA alles
Zeige --A aktuell
Zeige --A Monat
Zeige --A alles
Keine MMA-Anzeige
MMA:
Keine MMA-Graphiken
MMA-Basis: 13.12.2010 - 19.12.2010
Quicknavigation für Darstellung... ?
Tage:      1T, 2T, 3T, 5T -1T -2T -3T -5T +1T +2T +3T +5T
Wochen: 1W, 2W, 3W -1W -2W -3W +1W +2W +3W
Monate: 1M, 3M, 6M -1M -3M -6M +1M +3M +6M
Jahre:    1J, 3J, 5J, 10J -1J -3J -5J -10J +1J +3J +5J +10J
Nutze für die Darstellung ... ?
Originaldaten oder Mittelwerte auf ...
Stundenbasis Tagesbasis Wochenbasis
Monatsbasis Jahresbasis      Datenbasis: Original-Daten
Darstellen als:
Statistik (Auto) Statistik J:M      Darstellung:
Zur Graphik,    zurück zur Übersicht aller Sensoren.
 
Tabellarische Datenbersicht: ?
 
Sensor: Nr:Datum:Temp:Abs-Feuchte:Windchill:Wind:
Aussen-T/F 1 13-12-2010 00:05:04 -0.4 C 2.59 g/m*3 -0.4 C 0 km/h
2 13-12-2010 00:17:04 -0.4 C 2.59 g/m*3 -0.4 C 0 km/h
3 13-12-2010 00:29:04 -0.5 C 2.53 g/m*3 -0.5 C 0 km/h
4 13-12-2010 00:41:04 -0.6 C 2.37 g/m*3 -0.6 C 0 km/h
5 13-12-2010 00:53:04 -0.7 C 2.4 g/m*3 -0.7 C 0 km/h
6 13-12-2010 01:05:04 -0.7 C 2.35 g/m*3 -0.7 C 0 km/h
7 13-12-2010 01:17:04 -0.7 C 2.45 g/m*3 -0.7 C 0 km/h
8 13-12-2010 01:29:04 -0.9 C 2.46 g/m*3 -0.9 C 0 km/h
9 13-12-2010 01:41:04 -0.9 C 2.46 g/m*3 -0.9 C 0 km/h
10 13-12-2010 01:53:04 -1 C 2.53 g/m*3 -1 C 0 km/h
11 13-12-2010 02:05:04 -1.3 C 2.35 g/m*3 -1.3 C 0 km/h
12 13-12-2010 02:17:04 -2.1 C 2.26 g/m*3 -2.1 C 0 km/h
13 13-12-2010 02:29:04 -2.4 C 2.29 g/m*3 -2.4 C 0 km/h
14 13-12-2010 02:41:04 -2.7 C 2.29 g/m*3 -2.7 C 0 km/h
15 13-12-2010 02:53:04 -2.9 C 2.29 g/m*3 -2.9 C 0 km/h
16 13-12-2010 03:05:04 -2.9 C 2.29 g/m*3 -2.9 C 0 km/h
17 13-12-2010 03:17:04 -3.4 C 2.25 g/m*3 -3.4 C 0 km/h
18 13-12-2010 03:29:04 -3.6 C 2.26 g/m*3 -3.6 C 0 km/h
19 13-12-2010 03:41:04 -3.8 C 2.26 g/m*3 -3.8 C 0 km/h
20 13-12-2010 03:53:05 -3.8 C 2.26 g/m*3 -3.8 C 0 km/h
21 13-12-2010 04:05:05 -4.1 C 2.25 g/m*3 -4.1 C 0 km/h
22 13-12-2010 04:17:05 -4.2 C 2.31 g/m*3 -4.2 C 0 km/h
23 13-12-2010 04:29:05 -4.1 C 2.32 g/m*3 -4.1 C 0 km/h
24 13-12-2010 04:41:05 -4.4 C 2.28 g/m*3 -4.4 C 0 km/h
25 13-12-2010 04:53:05 -4.2 C 2.31 g/m*3 -4.2 C 0 km/h
Sensor: Nr:Datum:Temp:Abs-Feuchte:Windchill:Wind:
Aussen-T/F 26 13-12-2010 05:05:05 -4.7 C 2.26 g/m*3 -4.7 C 0 km/h
27 13-12-2010 05:17:05 -5.2 C 2.25 g/m*3 -5.2 C 0 km/h
28 13-12-2010 05:29:05 -6 C 2.19 g/m*3 -6 C 0 km/h
29 13-12-2010 05:41:05 -6.5 C 2.17 g/m*3 -6.5 C 0 km/h
30 13-12-2010 05:53:05 -6.6 C 2.24 g/m*3 -6.6 C 0 km/h
31 13-12-2010 06:05:05 -6.2 C 2.31 g/m*3 -6.2 C 0 km/h
32 13-12-2010 06:17:05 -6.3 C 2.32 g/m*3 -6.3 C 0 km/h
33 13-12-2010 06:29:05 -7 C 2.18 g/m*3 -7 C 0 km/h
34 13-12-2010 06:41:05 -7.5 C 2.13 g/m*3 -7.5 C 0 km/h
35 13-12-2010 06:53:05 -7.7 C 2.13 g/m*3 -7.7 C 0 km/h
36 13-12-2010 07:05:05 -7.2 C 2.23 g/m*3 -7.2 C 0 km/h
37 13-12-2010 07:17:05 -6.8 C 2.3 g/m*3 -6.8 C 0 km/h
38 13-12-2010 07:29:05 -7.2 C 2.2 g/m*3 -7.2 C 0 km/h
39 13-12-2010 07:41:02 -7.3 C 2.19 g/m*3 -7.3 C 0 km/h
40 13-12-2010 07:53:02 -7.5 C 2.19 g/m*3 -7.5 C 0 km/h
41 13-12-2010 08:05:01 -6.9 C 2.31 g/m*3 -6.9 C 0 km/h
42 13-12-2010 08:17:02 -7.2 C 2.26 g/m*3 -7.2 C 0 km/h
43 13-12-2010 08:29:02 -7.3 C 2.25 g/m*3 -7.3 C 0 km/h
44 13-12-2010 08:41:01 -7.3 C 2.25 g/m*3 -7.3 C 0 km/h
45 13-12-2010 08:53:02 -7.2 C 2.29 g/m*3 -7.2 C 0 km/h
46 13-12-2010 09:05:02 -7.3 C 2.25 g/m*3 -7.3 C 0 km/h
47 13-12-2010 09:17:02 -7.4 C 2.23 g/m*3 -7.4 C 0 km/h
48 13-12-2010 09:29:02 -7.3 C 2.25 g/m*3 -7.3 C 0 km/h
49 13-12-2010 09:41:02 -6.8 C 2.36 g/m*3 -6.8 C 0 km/h
50 13-12-2010 09:53:01 -6.8 C 2.36 g/m*3 -6.8 C 0 km/h
Sensor: Nr:Datum:Temp:Abs-Feuchte:Windchill:Wind:
Aussen-T/F 51 13-12-2010 10:05:02 -7.1 C 2.31 g/m*3 -7.1 C 0 km/h
52 13-12-2010 10:17:01 -7 C 2.33 g/m*3 -7 C 0 km/h
53 13-12-2010 10:29:01 -6.6 C 2.39 g/m*3 -6.6 C 0 km/h
54 13-12-2010 10:41:02 -6.6 C 2.39 g/m*3 -6.6 C 0 km/h
55 13-12-2010 10:53:02 -5.8 C 2.57 g/m*3 -5.8 C 0 km/h
56 13-12-2010 11:05:02 -4.9 C 2.71 g/m*3 -4.9 C 0 km/h
57 13-12-2010 11:17:01 -4.4 C 2.7 g/m*3 -4.4 C 0 km/h
58 13-12-2010 11:29:01 -4 C 2.6 g/m*3 -4 C 0 km/h
59 13-12-2010 11:41:02 -3.5 C 2.58 g/m*3 -3.5 C 0 km/h
60 13-12-2010 11:53:01 -3.2 C 2.56 g/m*3 -3.2 C 0 km/h
61 13-12-2010 12:05:02 -2.8 C 2.59 g/m*3 -2.8 C 0 km/h
62 13-12-2010 12:17:02 -2.8 C 2.51 g/m*3 -2.8 C 0 km/h
63 13-12-2010 12:29:02 -2.9 C 2.49 g/m*3 -2.9 C 0 km/h
64 13-12-2010 12:41:01 -2.8 C 2.51 g/m*3 -2.8 C 0 km/h
65 13-12-2010 12:53:02 -2.6 C 2.51 g/m*3 -2.6 C 0 km/h
66 13-12-2010 13:05:01 -2.5 C 2.56 g/m*3 -2.5 C 0 km/h
67 13-12-2010 13:17:02 -2.5 C 2.52 g/m*3 -2.5 C 0 km/h
68 13-12-2010 13:29:03 -2.3 C 2.52 g/m*3 -2.3 C 0 km/h
69 13-12-2010 13:41:01 -2.3 C 2.44 g/m*3 -2.3 C 0 km/h
70 13-12-2010 13:53:02 -2 C 2.44 g/m*3 -2 C 0 km/h
71 13-12-2010 14:05:02 -1.9 C 2.38 g/m*3 -1.9 C 0 km/h
72 13-12-2010 14:17:02 -2 C 2.36 g/m*3 -2 C 0 km/h
73 13-12-2010 14:29:02 -2.1 C 2.39 g/m*3 -2.1 C 0 km/h
74 13-12-2010 14:41:03 -2.3 C 2.39 g/m*3 -2.3 C 0 km/h
75 13-12-2010 14:53:02 -2.7 C 2.45 g/m*3 -2.7 C 0 km/h
Sensor: Nr:Datum:Temp:Abs-Feuchte:Windchill:Wind:
Aussen-T/F 76 13-12-2010 15:05:02 -2.9 C 2.45 g/m*3 -2.9 C 0 km/h
77 13-12-2010 15:17:01 -3.1 C 2.46 g/m*3 -3.1 C 0 km/h
78 13-12-2010 15:29:01 -3.4 C 2.48 g/m*3 -3.4 C 0 km/h
79 13-12-2010 15:41:02 -4.2 C 2.45 g/m*3 -4.2 C 0 km/h
80 13-12-2010 15:53:02 -4.7 C 2.51 g/m*3 -4.7 C 0 km/h
81 13-12-2010 16:05:03 -4.7 C 2.57 g/m*3 -4.7 C 0 km/h
82 13-12-2010 16:17:02 -4.8 C 2.59 g/m*3 -4.8 C 0 km/h
83 13-12-2010 16:29:02 -5 C 2.59 g/m*3 -5 C 0 km/h
84 13-12-2010 16:41:02 -5.3 C 2.53 g/m*3 -5.3 C 0 km/h
85 13-12-2010 16:53:02 -5.1 C 2.6 g/m*3 -5.1 C 0 km/h
86 13-12-2010 17:05:02 -5.6 C 2.54 g/m*3 -5.6 C 0 km/h
87 13-12-2010 17:17:01 -5.5 C 2.56 g/m*3 -5.5 C 0 km/h
88 13-12-2010 17:29:01 -6 C 2.47 g/m*3 -6 C 0 km/h
89 13-12-2010 17:41:02 -6.1 C 2.48 g/m*3 -6.1 C 0 km/h
90 13-12-2010 17:53:02 -6.2 C 2.43 g/m*3 -6.2 C 0 km/h
91 13-12-2010 18:05:02 -6 C 2.5 g/m*3 -6 C 0 km/h
92 13-12-2010 18:17:02 -6.2 C 2.47 g/m*3 -6.2 C 0 km/h
93 13-12-2010 18:29:02 -6.5 C 2.41 g/m*3 -6.5 C 0 km/h
94 13-12-2010 18:41:02 -6.1 C 2.52 g/m*3 -6.1 C 0 km/h
95 13-12-2010 18:53:02 -6.2 C 2.53 g/m*3 -6.2 C 0 km/h
96 13-12-2010 19:05:02 -6.2 C 2.53 g/m*3 -6.2 C 0 km/h
97 13-12-2010 19:17:02 -5.6 C 2.67 g/m*3 -5.6 C 0 km/h
98 13-12-2010 19:29:02 -5.3 C 2.77 g/m*3 -5.3 C 0 km/h
99 13-12-2010 19:41:02 -5.1 C 2.81 g/m*3 -5.1 C 0 km/h
100 13-12-2010 19:53:02 -5 C 2.83 g/m*3 -5 C 0 km/h
Sensor: Nr:Datum:Temp:Abs-Feuchte:Windchill:Wind:
Aussen-T/F 101 13-12-2010 20:05:02 -4.9 C 2.85 g/m*3 -4.9 C 0 km/h
102 13-12-2010 20:17:02 -5.3 C 2.7 g/m*3 -5.3 C 0 km/h
103 13-12-2010 20:29:02 -5.1 C 2.74 g/m*3 -5.1 C 0 km/h
104 13-12-2010 20:41:02 -4.6 C 2.84 g/m*3 -4.6 C 0 km/h
105 13-12-2010 20:53:02 -4.4 C 2.88 g/m*3 -4.4 C 0 km/h
106 13-12-2010 21:05:02 -4.4 C 2.84 g/m*3 -4.4 C 0 km/h
107 13-12-2010 21:17:02 -4.3 C 2.83 g/m*3 -4.3 C 0 km/h
108 13-12-2010 21:29:03 -4.2 C 2.81 g/m*3 -4.2 C 0 km/h
109 13-12-2010 21:41:02 -4.1 C 2.8 g/m*3 -4.1 C 0 km/h
110 13-12-2010 21:53:02 -4.1 C 2.8 g/m*3 -4.1 C 0 km/h
111 13-12-2010 22:05:01 -3.9 C 2.84 g/m*3 -3.9 C 0 km/h
112 13-12-2010 22:17:02 -3.9 C 2.84 g/m*3 -3.9 C 0 km/h
113 13-12-2010 22:29:02 -3.7 C 2.84 g/m*3 -3.7 C 0 km/h
114 13-12-2010 22:41:02 -4 C 2.85 g/m*3 -4 C 0 km/h
115 13-12-2010 22:53:02 -4.1 C 2.91 g/m*3 -4.1 C 0 km/h
116 13-12-2010 23:05:02 -4.1 C 2.94 g/m*3 -4.1 C 0 km/h
117 13-12-2010 23:17:02 -4.1 C 2.98 g/m*3 -4.1 C 0 km/h
118 13-12-2010 23:29:02 -4.1 C 3.01 g/m*3 -4.1 C 0 km/h
119 13-12-2010 23:41:02 -4.1 C 3.01 g/m*3 -4.1 C 0 km/h
120 13-12-2010 23:53:02 -4.1 C 3.05 g/m*3 -4.1 C 0 km/h
121 14-12-2010 00:05:02 -4.1 C 3.05 g/m*3 -4.1 C 0 km/h
122 14-12-2010 00:17:02 -4.1 C 3.01 g/m*3 -4.1 C 0 km/h
123 14-12-2010 00:29:02 -4.1 C 3.01 g/m*3 -4.1 C 0 km/h
124 14-12-2010 00:41:02 -4.1 C 3.01 g/m*3 -4.1 C 0 km/h
125 14-12-2010 00:53:03 -4.1 C 3.01 g/m*3 -4.1 C 0 km/h
Sensor: Nr:Datum:Temp:Abs-Feuchte:Windchill:Wind:
Aussen-T/F 126 14-12-2010 01:05:03 -4.1 C 3.01 g/m*3 -4.1 C 0 km/h
127 14-12-2010 01:17:03 -4.1 C 3.01 g/m*3 -4.1 C 0 km/h
128 14-12-2010 01:29:03 -4.1 C 3.01 g/m*3 -4.1 C 0 km/h
129 14-12-2010 01:41:03 -4 C 3.07 g/m*3 -4 C 0 km/h
130 14-12-2010 01:53:03 -4 C 3.04 g/m*3 -4 C 0 km/h
131 14-12-2010 02:05:03 -3.9 C 3.06 g/m*3 -3.9 C 0 km/h
132 14-12-2010 02:17:03 -3.9 C 3.06 g/m*3 -3.9 C 0 km/h
133 14-12-2010 02:29:03 -3.9 C 3.06 g/m*3 -3.9 C 0 km/h
134 14-12-2010 02:41:03 -3.8 C 3.08 g/m*3 -3.8 C 0 km/h
135 14-12-2010 02:53:03 -3.7 C 3.1 g/m*3 -3.7 C 0 km/h
136 14-12-2010 03:05:03 -3.7 C 3.1 g/m*3 -3.7 C 0 km/h
137 14-12-2010 03:17:03 -3.7 C 3.1 g/m*3 -3.7 C 0 km/h
138 14-12-2010 03:29:03 -3.7 C 3.1 g/m*3 -3.7 C 0 km/h
139 14-12-2010 03:41:03 -3.7 C 3.1 g/m*3 -3.7 C 0 km/h
140 14-12-2010 03:53:03 -3.5 C 3.15 g/m*3 -3.5 C 0 km/h
141 14-12-2010 04:05:03 -3.7 C 3.1 g/m*3 -3.7 C 0 km/h
142 14-12-2010 04:17:03 -3.5 C 3.11 g/m*3 -3.5 C 0 km/h
143 14-12-2010 04:29:03 -3.5 C 3.11 g/m*3 -3.5 C 0 km/h
144 14-12-2010 04:41:03 -3.7 C 3.06 g/m*3 -3.7 C 0 km/h
145 14-12-2010 04:53:04 -3.7 C 3.06 g/m*3 -3.7 C 0 km/h
146 14-12-2010 05:05:04 -3.7 C 3.06 g/m*3 -3.7 C 0 km/h
147 14-12-2010 05:17:04 -3.7 C 3.06 g/m*3 -3.7 C 0 km/h
148 14-12-2010 05:29:04 -3.8 C 3.04 g/m*3 -3.8 C 0 km/h
149 14-12-2010 05:41:04 -3.8 C 3.04 g/m*3 -3.8 C 0 km/h
150 14-12-2010 05:53:04 -4 C 3 g/m*3 -4 C 0 km/h
Sensor: Nr:Datum:Temp:Abs-Feuchte:Windchill:Wind:
Aussen-T/F 151 14-12-2010 06:05:04 -4.3 C 2.94 g/m*3 -4.3 C 0 km/h
152 14-12-2010 06:17:04 -4.9 C 2.81 g/m*3 -4.9 C 0 km/h
153 14-12-2010 06:29:04 -5 C 2.79 g/m*3 -5 C 0 km/h
154 14-12-2010 06:41:04 -4.7 C 2.89 g/m*3 -4.7 C 0 km/h
155 14-12-2010 06:53:04 -4.6 C 2.94 g/m*3 -4.6 C 0 km/h
156 14-12-2010 07:05:04 -5.3 C 2.77 g/m*3 -5.3 C 0 km/h
157 14-12-2010 07:17:04 -6 C 2.63 g/m*3 -6 C 0 km/h
158 14-12-2010 07:29:04 -6.4 C 2.55 g/m*3 -6.4 C 0 km/h
159 14-12-2010 07:41:04 -6.6 C 2.52 g/m*3 -6.6 C 0 km/h
160 14-12-2010 07:53:01 -6.8 C 2.51 g/m*3 -6.8 C 0 km/h
161 14-12-2010 08:05:01 -6.8 C 2.51 g/m*3 -6.8 C 0 km/h
162 14-12-2010 08:17:01 -6.8 C 2.54 g/m*3 -6.8 C 0 km/h
163 14-12-2010 08:29:01 -6 C 2.72 g/m*3 -6 C 0 km/h
164 14-12-2010 08:41:01 -5.9 C 2.74 g/m*3 -5.9 C 0 km/h
165 14-12-2010 08:53:02 -6.4 C 2.61 g/m*3 -6.4 C 0 km/h
166 14-12-2010 09:05:01 -6.4 C 2.61 g/m*3 -6.4 C 0 km/h
167 14-12-2010 09:17:01 -6.1 C 2.67 g/m*3 -6.1 C 0 km/h
168 14-12-2010 09:29:02 -5.7 C 2.75 g/m*3 -5.7 C 0 km/h
169 14-12-2010 09:41:01 -6 C 2.69 g/m*3 -6 C 0 km/h
170 14-12-2010 09:53:02 -5.8 C 2.73 g/m*3 -5.8 C 0 km/h
171 14-12-2010 10:05:01 -4.9 C 2.92 g/m*3 -4.9 C 0 km/h
172 14-12-2010 10:17:01 -4.3 C 3.04 g/m*3 -4.3 C 0 km/h
173 14-12-2010 10:29:01 -4 C 3.04 g/m*3 -4 C 0 km/h
174 14-12-2010 10:41:02 -3.7 C 3.03 g/m*3 -3.7 C 0 km/h
175 14-12-2010 10:53:01 -3.4 C 2.98 g/m*3 -3.4 C 0 km/h
Sensor: Nr:Datum:Temp:Abs-Feuchte:Windchill:Wind:
Aussen-T/F 176 14-12-2010 11:05:02 -3.3 C 2.85 g/m*3 -3.3 C 0 km/h
177 14-12-2010 11:17:01 -3.2 C 2.75 g/m*3 -3.2 C 0 km/h
178 14-12-2010 11:29:01 -3.6 C 2.63 g/m*3 -3.6 C 0 km/h
179 14-12-2010 11:41:02 -3.2 C 2.79 g/m*3 -3.2 C 0 km/h
180 14-12-2010 11:53:01 -2.9 C 2.73 g/m*3 -2.9 C 0 km/h
181 14-12-2010 12:05:02 -2.8 C 2.67 g/m*3 -2.8 C 0 km/h
182 14-12-2010 12:17:01 -2.4 C 2.66 g/m*3 -2.4 C 0 km/h
183 14-12-2010 12:29:01 -2.5 C 2.6 g/m*3 -2.5 C 0 km/h
184 14-12-2010 12:41:01 -2.3 C 2.68 g/m*3 -2.3 C 0 km/h
185 14-12-2010 12:53:01 -2.1 C 2.68 g/m*3 -2.1 C 0 km/h
186 14-12-2010 13:05:01 -2.3 C 2.68 g/m*3 -2.3 C 0 km/h
187 14-12-2010 13:17:02 -2.3 C 2.64 g/m*3 -2.3 C 0 km/h
188 14-12-2010 13:29:02 -2.2 C 2.62 g/m*3 -2.2 C 0 km/h
189 14-12-2010 13:41:01 -2.1 C 2.6 g/m*3 -2.1 C 0 km/h
190 14-12-2010 13:53:02 -2.1 C 2.64 g/m*3 -2.1 C 0 km/h
191 14-12-2010 14:05:01 -2.3 C 2.64 g/m*3 -2.3 C 0 km/h
192 14-12-2010 14:17:02 -2.5 C 2.65 g/m*3 -2.5 C 0 km/h
193 14-12-2010 14:29:02 -2.4 C 2.7 g/m*3 -2.4 C 0 km/h
194 14-12-2010 14:41:01 -2.4 C 2.66 g/m*3 -2.4 C 0 km/h
195 14-12-2010 14:53:02 -2.6 C 2.63 g/m*3 -2.6 C 0 km/h
196 14-12-2010 15:05:01 -2.7 C 2.65 g/m*3 -2.7 C 0 km/h
197 14-12-2010 15:17:01 -2.7 C 2.69 g/m*3 -2.7 C 0 km/h
198 14-12-2010 15:29:01 -2.8 C 2.71 g/m*3 -2.8 C 0 km/h
199 14-12-2010 15:41:02 -2.8 C 2.71 g/m*3 -2.8 C 0 km/h
200 14-12-2010 15:53:01 -2.8 C 2.75 g/m*3 -2.8 C 0 km/h
Sensor: Nr:Datum:Temp:Abs-Feuchte:Windchill:Wind:
Aussen-T/F 201 14-12-2010 16:05:02 -2.8 C 2.75 g/m*3 -2.8 C 0 km/h
202 14-12-2010 16:17:01 -2.8 C 2.79 g/m*3 -2.8 C 0 km/h
203 14-12-2010 16:29:01 -2.9 C 2.81 g/m*3 -2.9 C 0 km/h
204 14-12-2010 16:41:02 -3 C 2.83 g/m*3 -3 C 0 km/h
205 14-12-2010 16:53:01 -3 C 2.83 g/m*3 -3 C 0 km/h
206 14-12-2010 17:05:02 -3 C 2.87 g/m*3 -3 C 0 km/h
207 14-12-2010 17:17:01 -3 C 2.87 g/m*3 -3 C 0 km/h
208 14-12-2010 17:29:01 -3 C 2.95 g/m*3 -3 C 0 km/h
209 14-12-2010 17:41:01 -3 C 2.95 g/m*3 -3 C 0 km/h
210 14-12-2010 17:53:01 -2.9 C 2.93 g/m*3 -2.9 C 0 km/h
211 14-12-2010 18:05:01 -3.1 C 2.85 g/m*3 -3.1 C 0 km/h
212 14-12-2010 18:17:02 -3 C 2.79 g/m*3 -3 C 0 km/h
213 14-12-2010 18:29:02 -3.2 C 2.71 g/m*3 -3.2 C 0 km/h
214 14-12-2010 18:41:01 -3 C 2.79 g/m*3 -3 C 0 km/h
215 14-12-2010 18:53:02 -3 C 2.79 g/m*3 -3 C 0 km/h
216 14-12-2010 19:05:01 -2.8 C 2.83 g/m*3 -2.8 C 0 km/h
217 14-12-2010 19:17:02 -2.8 C 2.83 g/m*3 -2.8 C 0 km/h
218 14-12-2010 19:29:02 -2.8 C 2.87 g/m*3 -2.8 C 0 km/h
219 14-12-2010 19:41:01 -2.8 C 2.87 g/m*3 -2.8 C 0 km/h
220 14-12-2010 19:53:02 -2.9 C 2.81 g/m*3 -2.9 C 0 km/h
221 14-12-2010 20:05:01 -3 C 2.79 g/m*3 -3 C 0 km/h
222 14-12-2010 20:17:01 -3 C 2.79 g/m*3 -3 C 0 km/h
223 14-12-2010 20:29:01 -3 C 2.75 g/m*3 -3 C 0 km/h
224 14-12-2010 20:41:02 -3.1 C 2.69 g/m*3 -3.1 C 0 km/h
225 14-12-2010 20:53:01 -3.1 C 2.69 g/m*3 -3.1 C 0 km/h
Sensor: Nr:Datum:Temp:Abs-Feuchte:Windchill:Wind:
Aussen-T/F 226 14-12-2010 21:05:02 -3.1 C 2.65 g/m*3 -3.1 C 0 km/h
227 14-12-2010 21:17:01 -3.1 C 2.65 g/m*3 -3.1 C 0 km/h
228 14-12-2010 21:29:01 -3.1 C 2.65 g/m*3 -3.1 C 0 km/h
229 14-12-2010 21:41:02 -3.1 C 2.65 g/m*3 -3.1 C 0 km/h
230 14-12-2010 21:53:02 -3.2 C 2.59 g/m*3 -3.2 C 0 km/h
231 14-12-2010 22:05:02 -3.2 C 2.59 g/m*3 -3.2 C 0 km/h
232 14-12-2010 22:17:02 -3.2 C 2.56 g/m*3 -3.2 C 0 km/h
233 14-12-2010 22:29:02 -3.2 C 2.59 g/m*3 -3.2 C 0 km/h
234 14-12-2010 22:42:04 -3.1 C 2.57 g/m*3 -3.1 C 0 km/h
235 14-12-2010 22:54:04 -3.1 C 2.57 g/m*3 -3.1 C 0 km/h
236 14-12-2010 23:06:04 -3.2 C 2.52 g/m*3 -3.2 C 0 km/h
237 14-12-2010 23:18:04 -3.2 C 2.52 g/m*3 -3.2 C 0 km/h
238 14-12-2010 23:30:05 -3.2 C 2.48 g/m*3 -3.2 C 0 km/h
239 14-12-2010 23:42:05 -3.2 C 2.52 g/m*3 -3.2 C 0 km/h
240 14-12-2010 23:54:05 -3.3 C 2.5 g/m*3 -3.3 C 0 km/h
241 15-12-2010 00:06:05 -3.3 C 2.5 g/m*3 -3.3 C 0 km/h
242 15-12-2010 00:18:05 -3.3 C 2.5 g/m*3 -3.3 C 0 km/h
243 15-12-2010 00:30:05 -3.3 C 2.5 g/m*3 -3.3 C 0 km/h
244 15-12-2010 00:42:05 -3.3 C 2.5 g/m*3 -3.3 C 0 km/h
245 15-12-2010 00:54:05 -3.3 C 2.5 g/m*3 -3.3 C 0 km/h
246 15-12-2010 01:06:05 -3.3 C 2.54 g/m*3 -3.3 C 0 km/h
247 15-12-2010 01:18:05 -3.2 C 2.56 g/m*3 -3.2 C 0 km/h
248 15-12-2010 01:30:05 -3.2 C 2.59 g/m*3 -3.2 C 0 km/h
249 15-12-2010 01:42:05 -3.3 C 2.58 g/m*3 -3.3 C 0 km/h
250 15-12-2010 01:54:05 -3.3 C 2.58 g/m*3 -3.3 C 0 km/h
Sensor: Nr:Datum:Temp:Abs-Feuchte:Windchill:Wind:
Aussen-T/F 251 15-12-2010 02:06:05 -3.7 C 2.54 g/m*3 -3.7 C 0 km/h
252 15-12-2010 02:18:05 -4 C 2.56 g/m*3 -4 C 0 km/h
253 15-12-2010 02:30:05 -3.9 C 2.58 g/m*3 -3.9 C 0 km/h
254 15-12-2010 02:42:05 -4.5 C 2.51 g/m*3 -4.5 C 0 km/h
255 15-12-2010 02:54:05 -4.7 C 2.51 g/m*3 -4.7 C 0 km/h
256 15-12-2010 03:06:05 -4.7 C 2.54 g/m*3 -4.7 C 0 km/h
257 15-12-2010 03:18:05 -5 C 2.45 g/m*3 -5 C 0 km/h
258 15-12-2010 03:30:05 -4.8 C 2.52 g/m*3 -4.8 C 0 km/h
259 15-12-2010 03:42:05 -5.2 C 2.45 g/m*3 -5.2 C 0 km/h
260 15-12-2010 03:54:05 -4.8 C 2.56 g/m*3 -4.8 C 0 km/h
261 15-12-2010 04:06:06 -4.7 C 2.57 g/m*3 -4.7 C 0 km/h
262 15-12-2010 04:18:06 -4.3 C 2.65 g/m*3 -4.3 C 0 km/h
263 15-12-2010 04:30:06 -4.5 C 2.58 g/m*3 -4.5 C 0 km/h
264 15-12-2010 04:42:06 -5.4 C 2.41 g/m*3 -5.4 C 0 km/h
265 15-12-2010 04:54:06 -5.4 C 2.48 g/m*3 -5.4 C 0 km/h
266 15-12-2010 05:06:06 -4.9 C 2.61 g/m*3 -4.9 C 0 km/h
267 15-12-2010 05:18:06 -4.9 C 2.61 g/m*3 -4.9 C 0 km/h
268 15-12-2010 05:30:06 -4.8 C 2.63 g/m*3 -4.8 C 0 km/h
269 15-12-2010 05:42:06 -4.6 C 2.66 g/m*3 -4.6 C 0 km/h
270 15-12-2010 05:54:06 -4.4 C 2.67 g/m*3 -4.4 C 0 km/h
271 15-12-2010 06:06:06 -4 C 2.71 g/m*3 -4 C 0 km/h
272 15-12-2010 06:18:06 -3.8 C 2.71 g/m*3 -3.8 C 0 km/h
273 15-12-2010 06:30:06 -3.8 C 2.67 g/m*3 -3.8 C 0 km/h
274 15-12-2010 06:42:06 -3.8 C 2.71 g/m*3 -3.8 C 0 km/h
275 15-12-2010 06:54:06 -3.5 C 2.77 g/m*3 -3.5 C 0 km/h
Sensor: Nr:Datum:Temp:Abs-Feuchte:Windchill:Wind:
Aussen-T/F 276 15-12-2010 07:06:06 -3.5 C 2.81 g/m*3 -3.5 C 0 km/h
277 15-12-2010 07:18:06 -3.5 C 2.81 g/m*3 -3.5 C 0 km/h
278 15-12-2010 07:30:06 -3.4 C 2.83 g/m*3 -3.4 C 0 km/h
279 15-12-2010 07:42:06 -3.4 C 2.79 g/m*3 -3.4 C 0 km/h
280 15-12-2010 07:54:02 -3.3 C 2.85 g/m*3 -3.3 C 0 km/h
281 15-12-2010 08:06:03 -3.3 C 2.85 g/m*3 -3.3 C 0 km/h
282 15-12-2010 08:18:02 -3.4 C 2.83 g/m*3 -3.4 C 0 km/h
283 15-12-2010 08:30:02 -3.4 C 2.86 g/m*3 -3.4 C 0 km/h
284 15-12-2010 08:42:02 -3.3 C 2.92 g/m*3 -3.3 C 0 km/h
285 15-12-2010 08:54:02 -3.1 C 2.96 g/m*3 -3.1 C 0 km/h
286 15-12-2010 09:06:01 -2.9 C 3.01 g/m*3 -2.9 C 0 km/h
287 15-12-2010 09:18:02 -2.6 C 3.03 g/m*3 -2.6 C 0 km/h
288 15-12-2010 09:30:02 -2.6 C 2.99 g/m*3 -2.6 C 0 km/h
289 15-12-2010 09:42:02 -2.4 C 3.03 g/m*3 -2.4 C 0 km/h
290 15-12-2010 09:54:01 -2.3 C 3.05 g/m*3 -2.3 C 0 km/h
291 15-12-2010 10:06:02 -2.1 C 3.1 g/m*3 -2.1 C 0 km/h
292 15-12-2010 10:18:01 -2 C 3.12 g/m*3 -2 C 0 km/h
293 15-12-2010 10:30:01 -1.8 C 3.21 g/m*3 -1.8 C 0 km/h
294 15-12-2010 10:42:01 -1.5 C 3.32 g/m*3 -1.5 C 0 km/h
295 15-12-2010 10:54:01 -1.4 C 3.39 g/m*3 -1.4 C 0 km/h
296 15-12-2010 11:06:02 -1.2 C 3.43 g/m*3 -1.2 C 0 km/h
297 15-12-2010 11:18:01 -0.8 C 3.53 g/m*3 -0.8 C 0 km/h
298 15-12-2010 11:30:01 -0.5 C 3.56 g/m*3 -0.5 C 0 km/h
299 15-12-2010 11:42:01 -0.5 C 3.51 g/m*3 -0.5 C 0 km/h
300 15-12-2010 11:54:01 -0.4 C 3.53 g/m*3 -0.4 C 0 km/h
Sensor: Nr:Datum:Temp:Abs-Feuchte:Windchill:Wind:
Aussen-T/F 301 15-12-2010 12:06:01 -0.4 C 3.53 g/m*3 -0.4 C 0 km/h
302 15-12-2010 12:18:02 -0.4 C 3.49 g/m*3 -0.4 C 0 km/h
303 15-12-2010 12:30:02 -0.4 C 3.49 g/m*3 -0.4 C 0 km/h
304 15-12-2010 12:42:01 -0.5 C 3.46 g/m*3 -0.5 C 0 km/h
305 15-12-2010 12:54:58 -0.7 C 3.37 g/m*3 -0.7 C 0 km/h
306 15-12-2010 13:06:58 -0.8 C 3.44 g/m*3 -0.8 C 0 km/h
307 15-12-2010 13:18:58 -0.5 C 3.56 g/m*3 -0.5 C 0 km/h
308 15-12-2010 13:30:01 -0.4 C 3.53 g/m*3 -0.4 C 0 km/h
309 15-12-2010 13:42:01 0.1 C 3.71 g/m*3 0.1 C 0 km/h
310 15-12-2010 13:54:02 -0.3 C 3.56 g/m*3 -0.3 C 0 km/h
311 15-12-2010 14:06:01 0 C 3.63 g/m*3 0 C 0 km/h
312 15-12-2010 14:18:01 -0.1 C 3.42 g/m*3 -0.1 C 0 km/h
313 15-12-2010 14:30:01 -0.2 C 3.35 g/m*3 -0.2 C 0 km/h
314 15-12-2010 14:42:02 0 C 3.34 g/m*3 0 C 0 km/h
315 15-12-2010 14:54:02 -0.3 C 3.08 g/m*3 -0.3 C 0 km/h
316 15-12-2010 15:06:02 -0.8 C 2.84 g/m*3 -0.8 C 0 km/h
317 15-12-2010 15:18:02 -1.2 C 2.76 g/m*3 -1.2 C 0 km/h
318 15-12-2010 15:30:02 -1.5 C 2.75 g/m*3 -1.5 C 0 km/h
319 15-12-2010 15:42:02 -1.8 C 2.78 g/m*3 -1.8 C 0 km/h
320 15-12-2010 15:54:01 -1.9 C 2.84 g/m*3 -1.9 C 0 km/h
321 15-12-2010 16:06:01 -2.4 C 2.83 g/m*3 -2.4 C 0 km/h
322 15-12-2010 16:18:01 -2.2 C 2.91 g/m*3 -2.2 C 0 km/h
323 15-12-2010 16:30:01 -2.7 C 2.73 g/m*3 -2.7 C 0 km/h
324 15-12-2010 16:42:01 -4.2 C 2.49 g/m*3 -4.2 C 0 km/h
325 15-12-2010 16:54:01 -4.5 C 2.58 g/m*3 -4.5 C 0 km/h
Sensor: Nr:Datum:Temp:Abs-Feuchte:Windchill:Wind:
Aussen-T/F 326 15-12-2010 17:06:01 -4.5 C 2.68 g/m*3 -4.5 C 0 km/h
327 15-12-2010 17:18:02 -4.3 C 2.76 g/m*3 -4.3 C 0 km/h
328 15-12-2010 17:30:02 -4.3 C 2.76 g/m*3 -4.3 C 0 km/h
329 15-12-2010 17:42:01 -4.3 C 2.76 g/m*3 -4.3 C 0 km/h
330 15-12-2010 17:54:01 -4.3 C 2.76 g/m*3 -4.3 C 0 km/h
331 15-12-2010 18:06:01 -4.8 C 2.76 g/m*3 -4.8 C 0 km/h
332 15-12-2010 18:18:02 -4.8 C 2.76 g/m*3 -4.8 C 0 km/h
333 15-12-2010 18:30:02 -5.3 C 2.67 g/m*3 -5.3 C 0 km/h
334 15-12-2010 18:42:01 -4.9 C 2.78 g/m*3 -4.9 C 0 km/h
335 15-12-2010 18:54:03 -4.5 C 2.89 g/m*3 -4.5 C 0 km/h
336 15-12-2010 19:06:02 -4.5 C 2.89 g/m*3 -4.5 C 0 km/h
337 15-12-2010 19:18:02 -4.5 C 2.86 g/m*3 -4.5 C 0 km/h
338 15-12-2010 19:30:03 -4.2 C 2.92 g/m*3 -4.2 C 0 km/h
339 15-12-2010 19:42:02 -4.2 C 2.89 g/m*3 -4.2 C 0 km/h
340 15-12-2010 19:54:02 -4.7 C 2.75 g/m*3 -4.7 C 0 km/h
341 15-12-2010 20:06:01 -4.6 C 2.73 g/m*3 -4.6 C 0 km/h
342 15-12-2010 20:18:02 -3.4 C 2.98 g/m*3 -3.4 C 0 km/h
343 15-12-2010 20:30:02 -3.5 C 2.84 g/m*3 -3.5 C 0 km/h
344 15-12-2010 20:42:02 -3.3 C 2.81 g/m*3 -3.3 C 0 km/h
345 15-12-2010 20:54:01 -3.3 C 2.77 g/m*3 -3.3 C 0 km/h
346 15-12-2010 21:06:02 -3.2 C 2.79 g/m*3 -3.2 C 0 km/h
347 15-12-2010 21:19:03 -3.1 C 2.77 g/m*3 -3.1 C 0 km/h
348 15-12-2010 21:31:03 -3.1 C 2.77 g/m*3 -3.1 C 0 km/h
349 15-12-2010 21:43:03 -3.2 C 2.75 g/m*3 -3.2 C 0 km/h
350 15-12-2010 21:55:03 -3.3 C 2.77 g/m*3 -3.3 C 0 km/h
Sensor: Nr:Datum:Temp:Abs-Feuchte:Windchill:Wind:
Aussen-T/F 351 15-12-2010 22:07:03 -3.3 C 2.81 g/m*3 -3.3 C 0 km/h
352 15-12-2010 22:19:03 -3.3 C 2.81 g/m*3 -3.3 C 0 km/h
353 15-12-2010 22:31:03 -3.8 C 2.75 g/m*3 -3.8 C 0 km/h
354 15-12-2010 22:43:03 -4.5 C 2.65 g/m*3 -4.5 C 0 km/h
355 15-12-2010 22:55:03 -4 C 2.82 g/m*3 -4 C 0 km/h
356 15-12-2010 23:07:03 -4.2 C 2.78 g/m*3 -4.2 C 0 km/h
357 15-12-2010 23:19:03 -4.5 C 2.75 g/m*3 -4.5 C 0 km/h
358 15-12-2010 23:31:03 -4.2 C 2.85 g/m*3 -4.2 C 0 km/h
359 15-12-2010 23:43:03 -5 C 2.66 g/m*3 -5 C 0 km/h
360 15-12-2010 23:55:03 -4.8 C 2.76 g/m*3 -4.8 C 0 km/h
361 16-12-2010 00:07:04 -4.8 C 2.8 g/m*3 -4.8 C 0 km/h
362 16-12-2010 00:19:04 -4.3 C 2.94 g/m*3 -4.3 C 0 km/h
363 16-12-2010 00:31:04 -4.3 C 2.94 g/m*3 -4.3 C 0 km/h
364 16-12-2010 00:43:04 -4.8 C 2.83 g/m*3 -4.8 C 0 km/h
365 16-12-2010 00:55:04 -5.2 C 2.75 g/m*3 -5.2 C 0 km/h
366 16-12-2010 01:07:04 -5.1 C 2.81 g/m*3 -5.1 C 0 km/h
367 16-12-2010 01:19:04 -5 C 2.83 g/m*3 -5 C 0 km/h
368 16-12-2010 01:31:04 -4.6 C 2.94 g/m*3 -4.6 C 0 km/h
369 16-12-2010 01:43:04 -4.7 C 2.89 g/m*3 -4.7 C 0 km/h
370 16-12-2010 01:55:04 -4.8 C 2.87 g/m*3 -4.8 C 0 km/h
371 16-12-2010 02:07:04 -4.8 C 2.87 g/m*3 -4.8 C 0 km/h
372 16-12-2010 02:19:04 -4.9 C 2.81 g/m*3 -4.9 C 0 km/h
373 16-12-2010 02:31:04 -5.5 C 2.66 g/m*3 -5.5 C 0 km/h
374 16-12-2010 02:43:04 -5.8 C 2.64 g/m*3 -5.8 C 0 km/h
375 16-12-2010 02:55:04 -5.5 C 2.69 g/m*3 -5.5 C 0 km/h
Sensor: Nr:Datum:Temp:Abs-Feuchte:Windchill:Wind:
Aussen-T/F 376 16-12-2010 03:07:04 -5.6 C 2.71 g/m*3 -5.6 C 0 km/h
377 16-12-2010 03:19:04 -5.3 C 2.77 g/m*3 -5.3 C 0 km/h
378 16-12-2010 03:31:04 -5.4 C 2.75 g/m*3 -5.4 C 0 km/h
379 16-12-2010 03:43:04 -5.3 C 2.77 g/m*3 -5.3 C 0 km/h
380 16-12-2010 03:55:04 -5.2 C 2.79 g/m*3 -5.2 C 0 km/h
381 16-12-2010 04:07:05 -5.2 C 2.79 g/m*3 -5.2 C 0 km/h
382 16-12-2010 04:19:05 -5.3 C 2.73 g/m*3 -5.3 C 0 km/h
383 16-12-2010 04:31:05 -5.6 C 2.64 g/m*3 -5.6 C 0 km/h
384 16-12-2010 04:43:05 -5.8 C 2.6 g/m*3 -5.8 C 0 km/h
385 16-12-2010 04:55:05 -6 C 2.53 g/m*3 -6 C 0 km/h
386 16-12-2010 05:07:05 -6.1 C 2.48 g/m*3 -6.1 C 0 km/h
387 16-12-2010 05:19:05 -6.2 C 2.47 g/m*3 -6.2 C 0 km/h
388 16-12-2010 05:31:05 -6.3 C 2.42 g/m*3 -6.3 C 0 km/h
389 16-12-2010 05:43:05 -6.5 C 2.38 g/m*3 -6.5 C 0 km/h
390 16-12-2010 05:55:05 -6.9 C 2.31 g/m*3 -6.9 C 0 km/h
391 16-12-2010 06:07:05 -7.3 C 2.28 g/m*3 -7.3 C 0 km/h
392 16-12-2010 06:19:05 -7.4 C 2.29 g/m*3 -7.4 C 0 km/h
393 16-12-2010 06:31:05 -7.6 C 2.25 g/m*3 -7.6 C 0 km/h
394 16-12-2010 06:43:05 -7.6 C 2.23 g/m*3 -7.6 C 0 km/h
395 16-12-2010 06:55:05 -7.8 C 2.19 g/m*3 -7.8 C 0 km/h
396 16-12-2010 07:07:05 -8.1 C 2.14 g/m*3 -8.1 C 0 km/h
397 16-12-2010 07:19:05 -7.9 C 2.18 g/m*3 -7.9 C 0 km/h
398 16-12-2010 07:31:05 -8.1 C 2.14 g/m*3 -8.1 C 0 km/h
399 16-12-2010 07:43:05 -8.6 C 2.04 g/m*3 -8.6 C 0 km/h
400 16-12-2010 07:55:02 -8.7 C 2.03 g/m*3 -8.7 C 0 km/h
Sensor: Nr:Datum:Temp:Abs-Feuchte:Windchill:Wind:
Aussen-T/F 401 16-12-2010 08:07:01 -8.8 C 2.04 g/m*3 -8.8 C 0 km/h
402 16-12-2010 08:19:01 -8.2 C 2.13 g/m*3 -8.2 C 0 km/h
403 16-12-2010 08:31:02 -7.8 C 2.22 g/m*3 -7.8 C 0 km/h
404 16-12-2010 08:43:02 -7.5 C 2.24 g/m*3 -7.5 C 0 km/h
405 16-12-2010 08:55:02 -7 C 2.3 g/m*3 -7 C 0 km/h
406 16-12-2010 09:07:01 -6.9 C 2.28 g/m*3 -6.9 C 0 km/h
407 16-12-2010 09:19:01 -6.8 C 2.27 g/m*3 -6.8 C 0 km/h
408 16-12-2010 09:31:01 -6.8 C 2.21 g/m*3 -6.8 C 0 km/h
409 16-12-2010 09:43:01 -6.6 C 2.24 g/m*3 -6.6 C 0 km/h
410 16-12-2010 09:55:02 -5.9 C 2.3 g/m*3 -5.9 C 0 km/h
411 16-12-2010 10:07:01 -5.2 C 2.38 g/m*3 -5.2 C 0 km/h
412 16-12-2010 10:19:01 -5.2 C 2.38 g/m*3 -5.2 C 0 km/h
413 16-12-2010 10:31:01 -5 C 2.45 g/m*3 -5 C 0 km/h
414 16-12-2010 10:43:01 -4.7 C 2.51 g/m*3 -4.7 C 0 km/h
415 16-12-2010 10:55:02 -4.1 C 2.62 g/m*3 -4.1 C 0 km/h
416 16-12-2010 11:07:02 -3.7 C 2.65 g/m*3 -3.7 C 0 km/h
417 16-12-2010 11:19:02 -3.5 C 2.65 g/m*3 -3.5 C 0 km/h
418 16-12-2010 11:31:02 -3.3 C 2.69 g/m*3 -3.3 C 0 km/h
419 16-12-2010 11:43:02 -3.3 C 2.65 g/m*3 -3.3 C 0 km/h
420 16-12-2010 11:55:02 -3.3 C 2.61 g/m*3 -3.3 C 0 km/h
421 16-12-2010 12:07:02 -3.1 C 2.69 g/m*3 -3.1 C 0 km/h
422 16-12-2010 12:19:02 -3.1 C 2.73 g/m*3 -3.1 C 0 km/h
423 16-12-2010 12:31:01 -3 C 2.75 g/m*3 -3 C 0 km/h
424 16-12-2010 12:43:01 -2.6 C 2.87 g/m*3 -2.6 C 0 km/h
425 16-12-2010 12:55:02 -2.4 C 2.95 g/m*3 -2.4 C 0 km/h
Sensor: Nr:Datum:Temp:Abs-Feuchte:Windchill:Wind:
Aussen-T/F 426 16-12-2010 13:07:02 -2.2 C 2.95 g/m*3 -2.2 C 0 km/h
427 16-12-2010 13:19:02 -2.2 C 2.95 g/m*3 -2.2 C 0 km/h
428 16-12-2010 13:31:02 -2.1 C 3.01 g/m*3 -2.1 C 0 km/h
429 16-12-2010 13:43:02 -2.1 C 3.01 g/m*3 -2.1 C 0 km/h
430 16-12-2010 13:55:02 -2 C 3.03 g/m*3 -2 C 0 km/h
431 16-12-2010 14:07:02 -1.9 C 3.1 g/m*3 -1.9 C 0 km/h
432 16-12-2010 14:19:01 -1.9 C 3.14 g/m*3 -1.9 C 0 km/h
433 16-12-2010 14:31:02 -1.8 C 3.21 g/m*3 -1.8 C 0 km/h
434 16-12-2010 14:43:02 -1.6 C 3.25 g/m*3 -1.6 C 0 km/h
435 16-12-2010 14:55:02 -1.4 C 3.3 g/m*3 -1.4 C 0 km/h
436 16-12-2010 15:07:02 -1.5 C 3.32 g/m*3 -1.5 C 0 km/h
437 16-12-2010 15:19:01 -1.5 C 3.45 g/m*3 -1.5 C 0 km/h
438 16-12-2010 15:31:02 -1.5 C 3.49 g/m*3 -1.5 C 0 km/h
439 16-12-2010 15:43:02 -1.2 C 3.52 g/m*3 -1.2 C 0 km/h
440 16-12-2010 15:55:02 -1.3 C 3.45 g/m*3 -1.3 C 0 km/h
441 16-12-2010 16:07:02 -1.4 C 3.43 g/m*3 -1.4 C 0 km/h
442 16-12-2010 16:19:02 -1.5 C 3.41 g/m*3 -1.5 C 0 km/h
443 16-12-2010 16:31:02 -1.4 C 3.39 g/m*3 -1.4 C 0 km/h
444 16-12-2010 16:43:02 -1.1 C 3.46 g/m*3 -1.1 C 0 km/h
445 16-12-2010 16:55:01 -1.1 C 3.46 g/m*3 -1.1 C 0 km/h
446 16-12-2010 17:07:02 -1.4 C 3.43 g/m*3 -1.4 C 0 km/h
447 16-12-2010 17:19:02 -1.4 C 3.43 g/m*3 -1.4 C 0 km/h
448 16-12-2010 17:31:02 -1.2 C 3.48 g/m*3 -1.2 C 0 km/h
449 16-12-2010 17:43:02 -1.2 C 3.48 g/m*3 -1.2 C 0 km/h
450 16-12-2010 17:55:02 -1.1 C 3.55 g/m*3 -1.1 C 0 km/h
Sensor: Nr:Datum:Temp:Abs-Feuchte:Windchill:Wind:
Aussen-T/F 451 16-12-2010 18:07:01 -0.9 C 3.6 g/m*3 -0.9 C 0 km/h
452 16-12-2010 18:19:02 -0.7 C 3.65 g/m*3 -0.7 C 0 km/h
453 16-12-2010 18:31:02 -0.6 C 3.63 g/m*3 -0.6 C 0 km/h
454 16-12-2010 18:43:02 -0.6 C 3.58 g/m*3 -0.6 C 0 km/h
455 16-12-2010 18:55:01 -0.7 C 3.6 g/m*3 -0.7 C 0 km/h
456 16-12-2010 19:07:01 -0.4 C 3.68 g/m*3 -0.4 C 0 km/h
457 16-12-2010 19:19:01 -0.5 C 3.6 g/m*3 -0.5 C 0 km/h
458 16-12-2010 19:31:02 -0.2 C 3.73 g/m*3 -0.2 C 0 km/h
459 16-12-2010 19:43:02 -0.3 C 3.65 g/m*3 -0.3 C 0 km/h
460 16-12-2010 19:55:02 0 C 3.68 g/m*3 0 C 0 km/h
461 16-12-2010 20:07:02 0 C 3.68 g/m*3 0 C 0 km/h
462 16-12-2010 20:19:01 0 C 3.68 g/m*3 0 C 0 km/h
463 16-12-2010 20:31:02 0 C 3.68 g/m*3 0 C 0 km/h
464 16-12-2010 20:43:02 0 C 3.68 g/m*3 0 C 0 km/h
465 16-12-2010 20:55:02 0.1 C 3.71 g/m*3 0.1 C 0 km/h
466 16-12-2010 21:08:03 0 C 3.73 g/m*3 0 C 0 km/h
467 16-12-2010 21:20:03 -0.2 C 3.78 g/m*3 -0.2 C 0 km/h
468 16-12-2010 21:32:03 -0.2 C 3.78 g/m*3 -0.2 C 0 km/h
469 16-12-2010 21:44:03 -0.1 C 3.85 g/m*3 -0.1 C 0 km/h
470 16-12-2010 21:56:03 -0.1 C 3.8 g/m*3 -0.1 C 0 km/h
471 16-12-2010 22:08:03 -0.1 C 3.85 g/m*3 -0.1 C 0 km/h
472 16-12-2010 22:20:03 -0.2 C 3.87 g/m*3 -0.2 C 0 km/h
473 16-12-2010 22:32:03 -0.3 C 3.89 g/m*3 -0.3 C 0 km/h
474 16-12-2010 22:44:03 -0.5 C 3.88 g/m*3 -0.5 C 0 km/h
475 16-12-2010 22:56:03 -0.6 C 3.9 g/m*3 -0.6 C 0 km/h
Sensor: Nr:Datum:Temp:Abs-Feuchte:Windchill:Wind:
Aussen-T/F 476 16-12-2010 23:08:03 -0.5 C 3.93 g/m*3 -0.5 C 0 km/h
477 16-12-2010 23:20:03 -0.4 C 3.86 g/m*3 -0.4 C 0 km/h
478 16-12-2010 23:32:03 -0.5 C 3.79 g/m*3 -0.5 C 0 km/h
479 16-12-2010 23:44:03 -0.4 C 3.82 g/m*3 -0.4 C 0 km/h
480 16-12-2010 23:56:03 -0.5 C 3.79 g/m*3 -0.5 C 0 km/h
481 17-12-2010 00:08:03 -0.5 C 3.79 g/m*3 -0.5 C 0 km/h
482 17-12-2010 00:20:03 -0.3 C 3.84 g/m*3 -0.3 C 0 km/h
483 17-12-2010 00:32:03 -0.3 C 3.84 g/m*3 -0.3 C 0 km/h
484 17-12-2010 00:44:03 -0.1 C 3.9 g/m*3 -0.1 C 0 km/h
485 17-12-2010 00:56:04 -0.2 C 3.87 g/m*3 -0.2 C 0 km/h
486 17-12-2010 01:08:04 -0.2 C 3.87 g/m*3 -0.2 C 0 km/h
487 17-12-2010 01:20:04 -0.3 C 3.89 g/m*3 -0.3 C 0 km/h
488 17-12-2010 01:32:04 -0.4 C 3.86 g/m*3 -0.4 C 0 km/h
489 17-12-2010 01:44:04 -0.4 C 3.91 g/m*3 -0.4 C 0 km/h
490 17-12-2010 01:56:04 -0.4 C 3.86 g/m*3 -0.4 C 0 km/h
491 17-12-2010 02:08:04 -0.5 C 3.79 g/m*3 -0.5 C 0 km/h
492 17-12-2010 02:20:04 -0.5 C 3.7 g/m*3 -0.5 C 0 km/h
493 17-12-2010 02:32:04 -0.6 C 3.58 g/m*3 -0.6 C 0 km/h
494 17-12-2010 02:44:04 -0.6 C 3.53 g/m*3 -0.6 C 0 km/h
495 17-12-2010 02:56:04 -0.7 C 3.51 g/m*3 -0.7 C 0 km/h
496 17-12-2010 03:08:04 -1.1 C 3.37 g/m*3 -1.1 C 0 km/h
497 17-12-2010 03:20:04 -1.3 C 3.36 g/m*3 -1.3 C 0 km/h
498 17-12-2010 03:32:04 -1.2 C 3.39 g/m*3 -1.2 C 0 km/h
499 17-12-2010 03:44:04 -1.2 C 3.34 g/m*3 -1.2 C 0 km/h
500 17-12-2010 03:56:04 -1.2 C 3.34 g/m*3 -1.2 C 0 km/h
Sensor: Nr:Datum:Temp:Abs-Feuchte:Windchill:Wind:
Aussen-T/F 501 17-12-2010 04:08:04 -1.1 C 3.23 g/m*3 -1.1 C 0 km/h
502 17-12-2010 04:20:04 -1.2 C 3.12 g/m*3 -1.2 C 0 km/h
503 17-12-2010 04:32:04 -1.3 C 3.14 g/m*3 -1.3 C 0 km/h
504 17-12-2010 04:44:04 -1.3 C 3.14 g/m*3 -1.3 C 0 km/h
505 17-12-2010 04:56:04 -1.5 C 3.14 g/m*3 -1.5 C 0 km/h
506 17-12-2010 05:08:05 -1.3 C 3.28 g/m*3 -1.3 C 0 km/h
507 17-12-2010 05:20:05 -1.5 C 3.27 g/m*3 -1.5 C 0 km/h
508 17-12-2010 05:32:05 -1.7 C 3.27 g/m*3 -1.7 C 0 km/h
509 17-12-2010 05:44:05 -1.8 C 3.25 g/m*3 -1.8 C 0 km/h
510 17-12-2010 05:56:05 -1.8 C 3.21 g/m*3 -1.8 C 0 km/h
511 17-12-2010 06:08:05 -1.9 C 3.14 g/m*3 -1.9 C 0 km/h
512 17-12-2010 06:20:05 -2.2 C 3.08 g/m*3 -2.2 C 0 km/h
513 17-12-2010 06:32:05 -2.3 C 3.01 g/m*3 -2.3 C 0 km/h
514 17-12-2010 06:44:05 -2.6 C 2.83 g/m*3 -2.6 C 0 km/h
515 17-12-2010 06:56:05 -2.2 C 2.78 g/m*3 -2.2 C 0 km/h
516 17-12-2010 07:08:05 -2.2 C 2.62 g/m*3 -2.2 C 0 km/h
517 17-12-2010 07:20:04 -2.1 C 2.64 g/m*3 -2.1 C 0 km/h
518 17-12-2010 07:32:03 -2.3 C 2.64 g/m*3 -2.3 C 0 km/h
519 17-12-2010 07:44:03 -2.6 C 2.63 g/m*3 -2.6 C 0 km/h
520 17-12-2010 07:56:02 -2.2 C 2.74 g/m*3 -2.2 C 0 km/h
521 17-12-2010 08:08:02 -2.4 C 2.83 g/m*3 -2.4 C 0 km/h
522 17-12-2010 08:20:02 -2.4 C 2.99 g/m*3 -2.4 C 0 km/h
523 17-12-2010 08:32:02 -2.1 C 3.1 g/m*3 -2.1 C 0 km/h
524 17-12-2010 08:44:02 -2.1 C 3.06 g/m*3 -2.1 C 0 km/h
525 17-12-2010 08:56:02 -2.1 C 3.01 g/m*3 -2.1 C 0 km/h
Sensor: Nr:Datum:Temp:Abs-Feuchte:Windchill:Wind:
Aussen-T/F 526 17-12-2010 09:08:01 -2 C 2.95 g/m*3 -2 C 0 km/h
527 17-12-2010 09:20:02 -2 C 2.95 g/m*3 -2 C 0 km/h
528 17-12-2010 09:32:02 -1.9 C 3.01 g/m*3 -1.9 C 0 km/h
529 17-12-2010 09:44:02 -1.8 C 3.08 g/m*3 -1.8 C 0 km/h
530 17-12-2010 09:56:02 -1.9 C 3.06 g/m*3 -1.9 C 0 km/h
531 17-12-2010 10:08:02 -1.9 C 3.01 g/m*3 -1.9 C 0 km/h
532 17-12-2010 10:20:02 -1.8 C 2.95 g/m*3 -1.8 C 0 km/h
533 17-12-2010 10:32:02 -1.7 C 2.88 g/m*3 -1.7 C 0 km/h
534 17-12-2010 10:44:02 -1.8 C 2.86 g/m*3 -1.8 C 0 km/h
535 17-12-2010 10:56:01 -1.1 C 3.05 g/m*3 -1.1 C 0 km/h
536 17-12-2010 11:08:01 -1.5 C 2.92 g/m*3 -1.5 C 0 km/h
537 17-12-2010 11:20:01 -1.4 C 2.86 g/m*3 -1.4 C 0 km/h
538 17-12-2010 11:32:01 -1.1 C 2.78 g/m*3 -1.1 C 0 km/h
539 17-12-2010 11:44:01 -1.1 C 2.56 g/m*3 -1.1 C 0 km/h
540 17-12-2010 11:56:01 -0.9 C 2.55 g/m*3 -0.9 C 0 km/h
541 17-12-2010 12:08:01 -0.6 C 2.6 g/m*3 -0.6 C 0 km/h
542 17-12-2010 12:20:02 -1.2 C 2.54 g/m*3 -1.2 C 0 km/h
543 17-12-2010 12:32:01 -1.4 C 2.51 g/m*3 -1.4 C 0 km/h
544 17-12-2010 12:44:01 -1.2 C 2.54 g/m*3 -1.2 C 0 km/h
545 17-12-2010 12:56:03 -1.3 C 2.43 g/m*3 -1.3 C 0 km/h
546 17-12-2010 13:08:02 -1.9 C 2.38 g/m*3 -1.9 C 0 km/h
547 17-12-2010 13:20:02 -1 C 2.44 g/m*3 -1 C 0 km/h
548 17-12-2010 13:32:02 -1 C 2.44 g/m*3 -1 C 0 km/h
549 17-12-2010 13:44:02 -1 C 2.44 g/m*3 -1 C 0 km/h
550 17-12-2010 13:56:02 -1.2 C 2.45 g/m*3 -1.2 C 0 km/h
Sensor: Nr:Datum:Temp:Abs-Feuchte:Windchill:Wind:
Aussen-T/F 551 17-12-2010 14:08:01 -0.6 C 2.56 g/m*3 -0.6 C 0 km/h
552 17-12-2010 14:20:02 -1.1 C 2.51 g/m*3 -1.1 C 0 km/h
553 17-12-2010 14:32:02 -1.6 C 2.6 g/m*3 -1.6 C 0 km/h
554 17-12-2010 14:44:02 -1.8 C 2.74 g/m*3 -1.8 C 0 km/h
555 17-12-2010 14:56:02 -1.9 C 2.84 g/m*3 -1.9 C 0 km/h
556 17-12-2010 15:08:03 -1.9 C 2.93 g/m*3 -1.9 C 0 km/h
557 17-12-2010 15:20:02 -1.8 C 2.99 g/m*3 -1.8 C 0 km/h
558 17-12-2010 15:32:02 -1.7 C 2.97 g/m*3 -1.7 C 0 km/h
559 17-12-2010 15:44:03 -1.9 C 2.97 g/m*3 -1.9 C 0 km/h
560 17-12-2010 15:56:01 -1.8 C 3.04 g/m*3 -1.8 C 0 km/h
561 17-12-2010 16:08:02 -1.8 C 3.04 g/m*3 -1.8 C 0 km/h
562 17-12-2010 16:20:01 -1.9 C 3.01 g/m*3 -1.9 C 0 km/h
563 17-12-2010 16:32:01 -2.1 C 3.01 g/m*3 -2.1 C 0 km/h
564 17-12-2010 16:44:01 -2 C 3.03 g/m*3 -2 C 0 km/h
565 17-12-2010 16:56:01 -2.6 C 2.91 g/m*3 -2.6 C 0 km/h
566 17-12-2010 17:08:01 -3.4 C 2.83 g/m*3 -3.4 C 0 km/h
567 17-12-2010 17:20:01 -4.3 C 2.72 g/m*3 -4.3 C 0 km/h
568 17-12-2010 17:32:01 -4.2 C 2.81 g/m*3 -4.2 C 0 km/h
569 17-12-2010 17:44:01 -4.1 C 2.83 g/m*3 -4.1 C 0 km/h
570 17-12-2010 17:56:01 -4.3 C 2.79 g/m*3 -4.3 C 0 km/h
571 17-12-2010 18:08:02 -4.6 C 2.77 g/m*3 -4.6 C 0 km/h
572 17-12-2010 18:20:01 -4.8 C 2.76 g/m*3 -4.8 C 0 km/h
573 17-12-2010 18:32:01 -5.6 C 2.61 g/m*3 -5.6 C 0 km/h
574 17-12-2010 18:44:01 -5.8 C 2.6 g/m*3 -5.8 C 0 km/h
575 17-12-2010 18:56:01 -5.3 C 2.73 g/m*3 -5.3 C 0 km/h
Sensor: Nr:Datum:Temp:Abs-Feuchte:Windchill:Wind:
Aussen-T/F 576 17-12-2010 19:08:02 -6.2 C 2.53 g/m*3 -6.2 C 0 km/h
577 17-12-2010 19:20:02 -6.5 C 2.5 g/m*3 -6.5 C 0 km/h
578 17-12-2010 19:32:01 -6.1 C 2.61 g/m*3 -6.1 C 0 km/h
579 17-12-2010 19:44:01 -6.7 C 2.47 g/m*3 -6.7 C 0 km/h
580 17-12-2010 19:56:01 -6.9 C 2.43 g/m*3 -6.9 C 0 km/h
581 17-12-2010 20:08:02 -6.6 C 2.52 g/m*3 -6.6 C 0 km/h
582 17-12-2010 20:20:01 -6.6 C 2.52 g/m*3 -6.6 C 0 km/h
583 17-12-2010 20:32:02 -6.6 C 2.52 g/m*3 -6.6 C 0 km/h
584 17-12-2010 20:44:02 -6.5 C 2.53 g/m*3 -6.5 C 0 km/h
585 17-12-2010 20:56:02 -6.6 C 2.52 g/m*3 -6.6 C 0 km/h
586 17-12-2010 21:08:02 -6.8 C 2.48 g/m*3 -6.8 C 0 km/h
587 17-12-2010 21:20:02 -6.8 C 2.48 g/m*3 -6.8 C 0 km/h
588 17-12-2010 21:32:02 -7 C 2.41 g/m*3 -7 C 0 km/h
589 17-12-2010 21:44:02 -7.1 C 2.4 g/m*3 -7.1 C 0 km/h
590 17-12-2010 21:57:02 -7 C 2.41 g/m*3 -7 C 0 km/h
591 17-12-2010 22:09:02 -7.3 C 2.36 g/m*3 -7.3 C 0 km/h
592 17-12-2010 22:21:02 -7.4 C 2.34 g/m*3 -7.4 C 0 km/h
593 17-12-2010 22:33:02 -7.2 C 2.38 g/m*3 -7.2 C 0 km/h
594 17-12-2010 22:45:02 -6.6 C 2.52 g/m*3 -6.6 C 0 km/h
595 17-12-2010 22:57:02 -6.1 C 2.61 g/m*3 -6.1 C 0 km/h
596 17-12-2010 23:09:02 -6.2 C 2.59 g/m*3 -6.2 C 0 km/h
597 17-12-2010 23:21:02 -6 C 2.63 g/m*3 -6 C 0 km/h
598 17-12-2010 23:33:02 -6 C 2.63 g/m*3 -6 C 0 km/h
599 17-12-2010 23:45:02 -5.8 C 2.7 g/m*3 -5.8 C 0 km/h
600 17-12-2010 23:57:03 -5.5 C 2.76 g/m*3 -5.5 C 0 km/h
Sensor: Nr:Datum:Temp:Abs-Feuchte:Windchill:Wind:
Aussen-T/F 601 18-12-2010 00:09:03 -5.2 C 2.82 g/m*3 -5.2 C 0 km/h
602 18-12-2010 00:21:03 -4.9 C 2.92 g/m*3 -4.9 C 0 km/h
603 18-12-2010 00:33:03 -4.7 C 2.96 g/m*3 -4.7 C 0 km/h
604 18-12-2010 00:45:03 -4.5 C 3 g/m*3 -4.5 C 0 km/h
605 18-12-2010 00:57:03 -4.4 C 2.99 g/m*3 -4.4 C 0 km/h
606 18-12-2010 01:09:03 -4.3 C 2.97 g/m*3 -4.3 C 0 km/h
607 18-12-2010 01:21:03 -4.3 C 2.94 g/m*3 -4.3 C 0 km/h
608 18-12-2010 01:33:03 -4.2 C 2.96 g/m*3 -4.2 C 0 km/h
609 18-12-2010 01:45:03 -4.6 C 2.84 g/m*3 -4.6 C 0 km/h
610 18-12-2010 01:57:03 -4.8 C 2.8 g/m*3 -4.8 C 0 km/h
611 18-12-2010 02:09:03 -5.2 C 2.68 g/m*3 -5.2 C 0 km/h
612 18-12-2010 02:21:03 -5.9 C 2.55 g/m*3 -5.9 C 0 km/h
613 18-12-2010 02:33:03 -5.4 C 2.68 g/m*3 -5.4 C 0 km/h
614 18-12-2010 02:45:03 -5.3 C 2.73 g/m*3 -5.3 C 0 km/h
615 18-12-2010 02:57:03 -4.6 C 2.84 g/m*3 -4.6 C 0 km/h
616 18-12-2010 03:09:03 -4.5 C 2.82 g/m*3 -4.5 C 0 km/h
617 18-12-2010 03:21:03 -4.4 C 2.84 g/m*3 -4.4 C 0 km/h
618 18-12-2010 03:33:03 -4.3 C 2.86 g/m*3 -4.3 C 0 km/h
619 18-12-2010 03:45:03 -4.3 C 2.9 g/m*3 -4.3 C 0 km/h
620 18-12-2010 03:57:03 -4.3 C 2.94 g/m*3 -4.3 C 0 km/h
621 18-12-2010 04:09:03 -4.4 C 2.92 g/m*3 -4.4 C 0 km/h
622 18-12-2010 04:21:04 -4.4 C 2.92 g/m*3 -4.4 C 0 km/h
623 18-12-2010 04:33:04 -4.3 C 2.97 g/m*3 -4.3 C 0 km/h
624 18-12-2010 04:45:04 -4.4 C 2.95 g/m*3 -4.4 C 0 km/h
625 18-12-2010 04:57:04 -4.3 C 2.97 g/m*3 -4.3 C 0 km/h
Sensor: Nr:Datum:Temp:Abs-Feuchte:Windchill:Wind:
Aussen-T/F 626 18-12-2010 05:09:04 -4.4 C 2.99 g/m*3 -4.4 C 0 km/h
627 18-12-2010 05:21:04 -4.4 C 2.99 g/m*3 -4.4 C 0 km/h
628 18-12-2010 05:33:04 -4.5 C 2.96 g/m*3 -4.5 C 0 km/h
629 18-12-2010 05:45:04 -4.4 C 2.99 g/m*3 -4.4 C 0 km/h
630 18-12-2010 05:57:04 -4.5 C 2.96 g/m*3 -4.5 C 0 km/h
631 18-12-2010 06:09:04 -4.4 C 2.99 g/m*3 -4.4 C 0 km/h
632 18-12-2010 06:21:04 -4.4 C 2.99 g/m*3 -4.4 C 0 km/h
633 18-12-2010 06:33:04 -4.4 C 2.99 g/m*3 -4.4 C 0 km/h
634 18-12-2010 06:45:04 -4.3 C 3.01 g/m*3 -4.3 C 0 km/h
635 18-12-2010 06:57:04 -4.2 C 3.07 g/m*3 -4.2 C 0 km/h
636 18-12-2010 07:09:04 -4.2 C 3.07 g/m*3 -4.2 C 0 km/h
637 18-12-2010 07:21:04 -4.8 C 2.9 g/m*3 -4.8 C 0 km/h
638 18-12-2010 07:33:04 -5.4 C 2.78 g/m*3 -5.4 C 0 km/h
639 18-12-2010 07:45:04 -6.2 C 2.62 g/m*3 -6.2 C 0 km/h
640 18-12-2010 07:57:04 -5.7 C 2.72 g/m*3 -5.7 C 0 km/h
641 18-12-2010 08:09:04 -5.3 C 2.83 g/m*3 -5.3 C 0 km/h
642 18-12-2010 08:21:04 -5.3 C 2.83 g/m*3 -5.3 C 0 km/h
643 18-12-2010 08:33:04 -5.5 C 2.76 g/m*3 -5.5 C 0 km/h
644 18-12-2010 08:45:05 -5.4 C 2.78 g/m*3 -5.4 C 0 km/h
645 18-12-2010 08:57:05 -5.2 C 2.79 g/m*3 -5.2 C 0 km/h
646 18-12-2010 09:09:02 -5.2 C 2.75 g/m*3 -5.2 C 0 km/h
647 18-12-2010 09:21:02 -5.1 C 2.74 g/m*3 -5.1 C 0 km/h
648 18-12-2010 09:33:02 -4.9 C 2.71 g/m*3 -4.9 C 0 km/h
649 18-12-2010 09:45:02 -4.6 C 2.73 g/m*3 -4.6 C 0 km/h
650 18-12-2010 09:57:02 -4.4 C 2.7 g/m*3 -4.4 C 0 km/h
Sensor: Nr:Datum:Temp:Abs-Feuchte:Windchill:Wind:
Aussen-T/F 651 18-12-2010 10:09:02 -4.2 C 2.67 g/m*3 -4.2 C 0 km/h
652 18-12-2010 10:21:02 -4.1 C 2.65 g/m*3 -4.1 C 0 km/h
653 18-12-2010 10:33:02 -3.8 C 2.71 g/m*3 -3.8 C 0 km/h
654 18-12-2010 10:45:02 -3.5 C 2.73 g/m*3 -3.5 C 0 km/h
655 18-12-2010 10:57:02 -3.5 C 2.65 g/m*3 -3.5 C 0 km/h
656 18-12-2010 11:09:03 -3.5 C 2.62 g/m*3 -3.5 C 0 km/h
657 18-12-2010 11:21:02 -3.9 C 2.62 g/m*3 -3.9 C 0 km/h
658 18-12-2010 11:33:02 -3.5 C 2.69 g/m*3 -3.5 C 0 km/h
659 18-12-2010 11:45:01 -3.2 C 2.59 g/m*3 -3.2 C 0 km/h
660 18-12-2010 11:57:01 -3.3 C 2.42 g/m*3 -3.3 C 0 km/h
661 18-12-2010 12:09:02 -3.6 C 2.41 g/m*3 -3.6 C 0 km/h
662 18-12-2010 12:21:01 -3.8 C 2.49 g/m*3 -3.8 C 0 km/h
663 18-12-2010 12:33:01 -3.3 C 2.5 g/m*3 -3.3 C 0 km/h
664 18-12-2010 12:45:01 -2.9 C 2.49 g/m*3 -2.9 C 0 km/h
665 18-12-2010 12:57:01 -2.8 C 2.43 g/m*3 -2.8 C 0 km/h
666 18-12-2010 13:09:01 -3 C 2.36 g/m*3 -3 C 0 km/h
667 18-12-2010 13:21:02 -3.2 C 2.32 g/m*3 -3.2 C 0 km/h
668 18-12-2010 13:33:01 -3 C 2.36 g/m*3 -3 C 0 km/h
669 18-12-2010 13:45:03 -2.8 C 2.39 g/m*3 -2.8 C 0 km/h
670 18-12-2010 13:57:03 -2.8 C 2.39 g/m*3 -2.8 C 0 km/h
671 18-12-2010 14:09:02 -3.3 C 2.35 g/m*3 -3.3 C 0 km/h
672 18-12-2010 14:21:02 -3.2 C 2.32 g/m*3 -3.2 C 0 km/h
673 18-12-2010 14:33:02 -3.7 C 2.28 g/m*3 -3.7 C 0 km/h
674 18-12-2010 14:45:02 -4.2 C 2.27 g/m*3 -4.2 C 0 km/h
675 18-12-2010 14:57:02 -4.8 C 2.25 g/m*3 -4.8 C 0 km/h
Sensor: Nr:Datum:Temp:Abs-Feuchte:Windchill:Wind:
Aussen-T/F 676 18-12-2010 15:09:01 -4.7 C 2.3 g/m*3 -4.7 C 0 km/h
677 18-12-2010 15:21:02 -5.1 C 2.3 g/m*3 -5.1 C 0 km/h
678 18-12-2010 15:33:02 -5.6 C 2.28 g/m*3 -5.6 C 0 km/h
679 18-12-2010 15:45:02 -5.9 C 2.33 g/m*3 -5.9 C 0 km/h
680 18-12-2010 15:57:02 -6.1 C 2.33 g/m*3 -6.1 C 0 km/h
681 18-12-2010 16:09:03 -6.6 C 2.3 g/m*3 -6.6 C 0 km/h
682 18-12-2010 16:21:02 -6.9 C 2.25 g/m*3 -6.9 C 0 km/h
683 18-12-2010 16:33:02 -7 C 2.3 g/m*3 -7 C 0 km/h
684 18-12-2010 16:45:01 -7.5 C 2.24 g/m*3 -7.5 C 0 km/h
685 18-12-2010 16:57:01 -7.3 C 2.28 g/m*3 -7.3 C 0 km/h
686 18-12-2010 17:09:02 -7.6 C 2.25 g/m*3 -7.6 C 0 km/h
687 18-12-2010 17:21:01 -7.7 C 2.24 g/m*3 -7.7 C 0 km/h
688 18-12-2010 17:33:01 -7.9 C 2.23 g/m*3 -7.9 C 0 km/h
689 18-12-2010 17:45:01 -7.3 C 2.36 g/m*3 -7.3 C 0 km/h
690 18-12-2010 17:57:01 -7.3 C 2.36 g/m*3 -7.3 C 0 km/h
691 18-12-2010 18:09:01 -6.7 C 2.5 g/m*3 -6.7 C 0 km/h
692 18-12-2010 18:21:02 -6.8 C 2.48 g/m*3 -6.8 C 0 km/h
693 18-12-2010 18:33:01 -6.9 C 2.43 g/m*3 -6.9 C 0 km/h
694 18-12-2010 18:45:02 -6.8 C 2.45 g/m*3 -6.8 C 0 km/h
695 18-12-2010 18:57:02 -6.5 C 2.53 g/m*3 -6.5 C 0 km/h
696 18-12-2010 19:09:01 -5.8 C 2.7 g/m*3 -5.8 C 0 km/h
697 18-12-2010 19:21:02 -5.4 C 2.78 g/m*3 -5.4 C 0 km/h
698 18-12-2010 19:33:01 -5.4 C 2.78 g/m*3 -5.4 C 0 km/h
699 18-12-2010 19:45:02 -5.2 C 2.82 g/m*3 -5.2 C 0 km/h
700 18-12-2010 19:57:02 -4.9 C 2.88 g/m*3 -4.9 C 0 km/h
Sensor: Nr:Datum:Temp:Abs-Feuchte:Windchill:Wind:
Aussen-T/F 701 18-12-2010 20:09:02 -4.6 C 2.94 g/m*3 -4.6 C 0 km/h
702 18-12-2010 20:21:02 -4.4 C 2.99 g/m*3 -4.4 C 0 km/h
703 18-12-2010 20:33:02 -4.2 C 2.99 g/m*3 -4.2 C 0 km/h
704 18-12-2010 20:45:01 -4.4 C 2.95 g/m*3 -4.4 C 0 km/h
705 18-12-2010 20:57:01 -4.2 C 2.99 g/m*3 -4.2 C 0 km/h
706 18-12-2010 21:09:02 -4.1 C 3.01 g/m*3 -4.1 C 0 km/h
707 18-12-2010 21:21:01 -4.1 C 3.01 g/m*3 -4.1 C 0 km/h
708 18-12-2010 21:33:02 -3.9 C 3.06 g/m*3 -3.9 C 0 km/h
709 18-12-2010 21:46:03 -4 C 3.04 g/m*3 -4 C 0 km/h
710 18-12-2010 21:58:03 -3.8 C 3.12 g/m*3 -3.8 C 0 km/h
711 18-12-2010 22:10:03 -3.5 C 3.18 g/m*3 -3.5 C 0 km/h
712 18-12-2010 22:22:03 -3.5 C 3.18 g/m*3 -3.5 C 0 km/h
713 18-12-2010 22:34:03 -3.4 C 3.21 g/m*3 -3.4 C 0 km/h
714 18-12-2010 22:46:03 -3.4 C 3.21 g/m*3 -3.4 C 0 km/h
715 18-12-2010 22:58:03 -3.3 C 3.23 g/m*3 -3.3 C 0 km/h
716 18-12-2010 23:10:03 -3.2 C 3.25 g/m*3 -3.2 C 0 km/h
717 18-12-2010 23:22:03 -3.1 C 3.28 g/m*3 -3.1 C 0 km/h
718 18-12-2010 23:34:03 -3.1 C 3.28 g/m*3 -3.1 C 0 km/h
719 18-12-2010 23:46:03 -3.1 C 3.28 g/m*3 -3.1 C 0 km/h
720 18-12-2010 23:58:03 -2.9 C 3.32 g/m*3 -2.9 C 0 km/h
721 19-12-2010 00:10:03 -2.7 C 3.37 g/m*3 -2.7 C 0 km/h
722 19-12-2010 00:22:03 -2.7 C 3.37 g/m*3 -2.7 C 0 km/h
723 19-12-2010 00:34:04 -2.6 C 3.39 g/m*3 -2.6 C 0 km/h
724 19-12-2010 00:46:04 -2.4 C 3.44 g/m*3 -2.4 C 0 km/h
725 19-12-2010 00:58:04 -2.4 C 3.48 g/m*3 -2.4 C 0 km/h
Sensor: Nr:Datum:Temp:Abs-Feuchte:Windchill:Wind:
Aussen-T/F 726 19-12-2010 01:10:04 -2.4 C 3.52 g/m*3 -2.4 C 0 km/h
727 19-12-2010 01:22:04 -2.4 C 3.52 g/m*3 -2.4 C 0 km/h
728 19-12-2010 01:34:04 -2.4 C 3.52 g/m*3 -2.4 C 0 km/h
729 19-12-2010 01:46:04 -2.5 C 3.54 g/m*3 -2.5 C 0 km/h
730 19-12-2010 01:58:04 -2.5 C 3.54 g/m*3 -2.5 C 0 km/h
731 19-12-2010 02:10:04 -2.4 C 3.57 g/m*3 -2.4 C 0 km/h
732 19-12-2010 02:22:04 -2.5 C 3.54 g/m*3 -2.5 C 0 km/h
733 19-12-2010 02:34:04 -2.5 C 3.54 g/m*3 -2.5 C 0 km/h
734 19-12-2010 02:46:04 -2.5 C 3.54 g/m*3 -2.5 C 0 km/h
735 19-12-2010 02:58:04 -2.6 C 3.52 g/m*3 -2.6 C 0 km/h
736 19-12-2010 03:10:04 -2.7 C 3.49 g/m*3 -2.7 C 0 km/h
737 19-12-2010 03:22:04 -2.7 C 3.49 g/m*3 -2.7 C 0 km/h
738 19-12-2010 03:34:04 -2.7 C 3.49 g/m*3 -2.7 C 0 km/h
739 19-12-2010 03:46:04 -2.7 C 3.49 g/m*3 -2.7 C 0 km/h
740 19-12-2010 03:58:04 -2.7 C 3.49 g/m*3 -2.7 C 0 km/h
741 19-12-2010 04:10:04 -2.6 C 3.52 g/m*3 -2.6 C 0 km/h
742 19-12-2010 04:22:04 -2.5 C 3.54 g/m*3 -2.5 C 0 km/h
743 19-12-2010 04:34:04 -2.5 C 3.54 g/m*3 -2.5 C 0 km/h
744 19-12-2010 04:46:04 -2.4 C 3.57 g/m*3 -2.4 C 0 km/h
745 19-12-2010 04:58:05 -2.3 C 3.59 g/m*3 -2.3 C 0 km/h
746 19-12-2010 05:10:05 -1.6 C 3.77 g/m*3 -1.6 C 0 km/h
747 19-12-2010 05:22:05 -1.1 C 3.82 g/m*3 -1.1 C 0 km/h
748 19-12-2010 05:34:05 -0.9 C 3.69 g/m*3 -0.9 C 0 km/h
749 19-12-2010 05:46:05 -0.6 C 3.58 g/m*3 -0.6 C 0 km/h
750 19-12-2010 05:58:05 -0.9 C 3.46 g/m*3 -0.9 C 0 km/h
Sensor: Nr:Datum:Temp:Abs-Feuchte:Windchill:Wind:
Aussen-T/F 751 19-12-2010 06:10:05 -1.1 C 3.41 g/m*3 -1.1 C 0 km/h
752 19-12-2010 06:22:05 -1.4 C 3.3 g/m*3 -1.4 C 0 km/h
753 19-12-2010 06:34:05 -1.4 C 3.25 g/m*3 -1.4 C 0 km/h
754 19-12-2010 06:46:05 -1.7 C 3.19 g/m*3 -1.7 C 0 km/h
755 19-12-2010 06:58:05 -2.6 C 3.07 g/m*3 -2.6 C 0 km/h
756 19-12-2010 07:10:05 -2.8 C 3.03 g/m*3 -2.8 C 0 km/h
757 19-12-2010 07:22:05 -3.3 C 3.04 g/m*3 -3.3 C 0 km/h
758 19-12-2010 07:34:05 -2.7 C 3.21 g/m*3 -2.7 C 0 km/h
759 19-12-2010 07:46:05 -2 C 3.37 g/m*3 -2 C 0 km/h
760 19-12-2010 07:58:05 -2.1 C 3.31 g/m*3 -2.1 C 0 km/h
761 19-12-2010 08:10:05 -1.7 C 3.31 g/m*3 -1.7 C 0 km/h
762 19-12-2010 08:22:05 -2.7 C 3.09 g/m*3 -2.7 C 0 km/h
763 19-12-2010 08:34:05 -2.9 C 3.13 g/m*3 -2.9 C 0 km/h
764 19-12-2010 08:46:02 -2.9 C 3.16 g/m*3 -2.9 C 0 km/h
765 19-12-2010 08:58:02 -2.3 C 3.3 g/m*3 -2.3 C 0 km/h
766 19-12-2010 09:10:02 -2.1 C 3.31 g/m*3 -2.1 C 0 km/h
767 19-12-2010 09:22:02 -2.5 C 3.26 g/m*3 -2.5 C 0 km/h
768 19-12-2010 09:34:02 -2.4 C 3.32 g/m*3 -2.4 C 0 km/h
769 19-12-2010 09:46:02 -2 C 3.41 g/m*3 -2 C 0 km/h
770 19-12-2010 09:58:02 -1.2 C 3.57 g/m*3 -1.2 C 0 km/h
771 19-12-2010 10:10:02 -1.1 C 3.5 g/m*3 -1.1 C 0 km/h
772 19-12-2010 10:22:02 -1.1 C 3.41 g/m*3 -1.1 C 0 km/h
773 19-12-2010 10:34:02 -0.8 C 3.44 g/m*3 -0.8 C 0 km/h
774 19-12-2010 10:46:02 -0.9 C 3.37 g/m*3 -0.9 C 0 km/h
775 19-12-2010 10:58:02 -0.8 C 3.35 g/m*3 -0.8 C 0 km/h
Sensor: Nr:Datum:Temp:Abs-Feuchte:Windchill:Wind:
Aussen-T/F 776 19-12-2010 11:10:01 -0.7 C 3.37 g/m*3 -0.7 C 0 km/h
777 19-12-2010 11:22:02 -0.6 C 3.44 g/m*3 -0.6 C 0 km/h
778 19-12-2010 11:34:02 -0.4 C 3.58 g/m*3 -0.4 C 0 km/h
779 19-12-2010 11:46:02 -0.2 C 3.68 g/m*3 -0.2 C 0 km/h
780 19-12-2010 11:58:02 0 C 3.73 g/m*3 0 C 0 km/h
781 19-12-2010 12:10:02 0 C 3.59 g/m*3 0 C 0 km/h
782 19-12-2010 12:22:02 0.2 C 3.64 g/m*3 0.2 C 0 km/h
783 19-12-2010 12:34:02 0.6 C 3.69 g/m*3 0.6 C 0 km/h
784 19-12-2010 12:46:01 0.5 C 3.56 g/m*3 0.5 C 0 km/h
785 19-12-2010 12:58:01 0.2 C 3.54 g/m*3 0.2 C 0 km/h
786 19-12-2010 13:10:02 0.2 C 3.59 g/m*3 0.2 C 0 km/h
787 19-12-2010 13:22:01 0.2 C 3.68 g/m*3 0.2 C 0 km/h
788 19-12-2010 13:34:02 0.2 C 3.73 g/m*3 0.2 C 0 km/h
789 19-12-2010 13:46:01 0.1 C 3.76 g/m*3 0.1 C 0 km/h
790 19-12-2010 13:58:01 0 C 3.78 g/m*3 0 C 0 km/h
791 19-12-2010 14:10:02 -0.2 C 3.82 g/m*3 -0.2 C 0 km/h
792 19-12-2010 14:22:01 -0.2 C 3.92 g/m*3 -0.2 C 0 km/h
793 19-12-2010 14:34:02 -0.2 C 3.97 g/m*3 -0.2 C 0 km/h
794 19-12-2010 14:46:01 -0.1 C 3.99 g/m*3 -0.1 C 0 km/h
795 19-12-2010 14:58:01 -0.2 C 4.01 g/m*3 -0.2 C 0 km/h
796 19-12-2010 15:10:02 -0.4 C 4.01 g/m*3 -0.4 C 0 km/h
797 19-12-2010 15:22:02 -0.4 C 4.05 g/m*3 -0.4 C 0 km/h
798 19-12-2010 15:34:01 -0.4 C 4.1 g/m*3 -0.4 C 0 km/h
799 19-12-2010 15:46:02 -0.4 C 4.1 g/m*3 -0.4 C 0 km/h
800 19-12-2010 15:58:02 -0.4 C 4.15 g/m*3 -0.4 C 0 km/h
Sensor: Nr:Datum:Temp:Abs-Feuchte:Windchill:Wind:
Aussen-T/F 801 19-12-2010 16:10:01 -0.4 C 4.19 g/m*3 -0.4 C 0 km/h
802 19-12-2010 16:22:02 -0.3 C 4.22 g/m*3 -0.3 C 0 km/h
803 19-12-2010 16:34:01 -0.3 C 4.22 g/m*3 -0.3 C 0 km/h
804 19-12-2010 16:46:02 -0.2 C 4.25 g/m*3 -0.2 C 0 km/h
805 19-12-2010 16:58:02 -0.3 C 4.27 g/m*3 -0.3 C 0 km/h
806 19-12-2010 17:10:02 -0.2 C 4.3 g/m*3 -0.2 C 0 km/h
807 19-12-2010 17:22:02 -0.2 C 4.3 g/m*3 -0.2 C 0 km/h
808 19-12-2010 17:34:03 -0.2 C 4.35 g/m*3 -0.2 C 0 km/h
809 19-12-2010 17:46:02 -0.2 C 4.35 g/m*3 -0.2 C 0 km/h
810 19-12-2010 17:58:03 -0.2 C 4.35 g/m*3 -0.2 C 0 km/h
811 19-12-2010 18:10:01 -0.2 C 4.35 g/m*3 -0.2 C 0 km/h
812 19-12-2010 18:22:02 -0.2 C 4.35 g/m*3 -0.2 C 0 km/h
813 19-12-2010 18:34:02 -0.2 C 4.35 g/m*3 -0.2 C 0 km/h
814 19-12-2010 18:46:02 -0.2 C 4.35 g/m*3 -0.2 C 0 km/h
815 19-12-2010 18:58:02 -0.1 C 4.43 g/m*3 -0.1 C 0 km/h
816 19-12-2010 19:10:02 -0.1 C 4.43 g/m*3 -0.1 C 0 km/h
817 19-12-2010 19:22:02 -0.1 C 4.43 g/m*3 -0.1 C 0 km/h
818 19-12-2010 19:34:02 0 C 4.46 g/m*3 0 C 0 km/h
819 19-12-2010 19:46:02 0 C 4.46 g/m*3 0 C 0 km/h
820 19-12-2010 19:58:02 0 C 4.46 g/m*3 0 C 0 km/h
821 19-12-2010 20:10:02 0 C 4.46 g/m*3 0 C 0 km/h
822 19-12-2010 20:22:02 0 C 4.46 g/m*3 0 C 0 km/h
823 19-12-2010 20:34:02 0.1 C 4.49 g/m*3 0.1 C 0 km/h
824 19-12-2010 20:46:02 0.1 C 4.49 g/m*3 0.1 C 0 km/h
825 19-12-2010 20:58:02 0.2 C 4.57 g/m*3 0.2 C 0 km/h
Sensor: Nr:Datum:Temp:Abs-Feuchte:Windchill:Wind:
Aussen-T/F 826 19-12-2010 21:10:02 0.3 C 4.6 g/m*3 0.3 C 0 km/h
827 19-12-2010 21:22:03 0.4 C 4.63 g/m*3 0.4 C 0 km/h
828 19-12-2010 21:34:02 1 C 4.78 g/m*3 1 C 0 km/h
829 19-12-2010 21:46:03 1.8 C 5.1 g/m*3 1.8 C 0 km/h
830 19-12-2010 21:58:03 2 C 5.11 g/m*3 2 C 0 km/h
831 19-12-2010 22:10:03 1.9 C 5.08 g/m*3 1.9 C 0 km/h
832 19-12-2010 22:22:02 1.7 C 5.01 g/m*3 1.7 C 0 km/h
833 19-12-2010 22:34:02 1.5 C 4.94 g/m*3 1.5 C 0 km/h
834 19-12-2010 22:46:01 1.6 C 4.92 g/m*3 1.6 C 0 km/h
835 19-12-2010 22:58:01 2.9 C 5.37 g/m*3 2.9 C 0 km/h
836 19-12-2010 23:10:02 3.6 C 5.45 g/m*3 3.6 C 0 km/h
837 19-12-2010 23:22:01 4.2 C 5.28 g/m*3 4.2 C 0 km/h
838 19-12-2010 23:34:02 4.5 C 5 g/m*3 4.5 C 0 km/h
839 19-12-2010 23:46:01 5.1 C 4.79 g/m*3 5.1 C 0 km/h
840 19-12-2010 23:58:01 4.7 C 4.66 g/m*3 4.7 C 0 km/h

Legende:
   Min
   Max


Maximal/Minimal-Werte vom 13.12.2010 - 19.12.2010

Sensor Min Max Avg
Temp
(Aussen-T/F)
-8.8 °C
16-12-2010  08:07:01
5.1 °C
19-12-2010  23:46:01
-3.26 °C
Abs-Feuchte
(Aussen-T/F)
2.03 g/m*3
16-12-2010  07:55:02
5.45 g/m*3
19-12-2010  23:10:02
2.95 g/m*3
Windchill
(Aussen-T/F)
-8.8 C
16-12-2010  08:07:01
5.1 C
19-12-2010  23:46:01
-3.26 C

Die Daten stammen von einer Davis Vantage Pro 2 Wetter-Station und werden unter Linux mit der Software wview2wettercgi und aufbereitet. Alle Angaben erfolgen ohne Gewähr für ihre Vollständigkeit oder Richtigkeit.
Kontakt: Rainer Krienke krienke@uni-koblenz.de . Meine Webseiten an der Uni Koblenz oder privat.
Version: $Revision: 0.78 $